LGKF/EFL METAR and TAF weather

Enter ICAO airport designator
Station Type Date Time Source
LGKF METAR 2022/11/30 10:50 UTC NOAA

LGKF 301050Z 11013KT 9999 FEW014 FEW016TCU SCT020 BKN070 17/10 Q1007


Station Type Date Time Source
LGKF Decoded METAR 2022/11/30 10:50 UTC NOAA

Kefalhnia Airport , Greece (LGKF) 38-07N 020-30E 22M
Nov 30, 2022 - 05:50 AM EST / 2022.11.30 1050 UTC
Wind: from the ESE (110 degrees) at 15 MPH (13 KT):0
Visibility: greater than 7 mile(s):0
Sky conditions: mostly cloudy
Weather: Towering cumulus clouds observed
Temperature: 62 F (17 C)
Dew Point: 50 F (10 C)
Relative Humidity: 63%
Pressure (altimeter): 29.74 in. Hg (1007 hPa)
ob: LGKF 301050Z 11013KT 9999 FEW014 FEW016TCU SCT020 BKN070 17/10 Q1007
cycle: 11

Station Type Date Time Source
LGKF TAF 2011/03/20 15:06 UTC NOAA

TAF LGKF 201400Z 2015/2103 05012KT 9999 FEW020 SCT080 PROB30
TEMPO 2015/2003 6000 RA SCT020 BKN060 PROB30
TEMPO 2015/2021 4000 TSRA SCT015 FEW018CB BKN025

Example: see airport list